Address 0x063b43522defccb3ebea669490262f223f679dcc

Txn Hash Method
Block
From
To
Value [Txn Fee]
0xcc3624e89e5ba200dfc95c006260a096b18629d808594d09f5d300f4cc1f2f11User Burn22183472022-11-16 3:51:1878 days 4 hrs ago0x063b43522defccb3ebea669490262f223f679dccOUT 0xcef19151f44fc3df678554f35c1dd7f29afacde80 CLV0.00182424
0xdf3ef4a1fc856dbc1e0d1a58c699490783c29da3fd227fa69d38ed01ee2bd8a9User Burn20286142022-10-20 8:15:36105 days 32 mins ago0x063b43522defccb3ebea669490262f223f679dccOUT 0xcef19151f44fc3df678554f35c1dd7f29afacde80 CLV0.00182544
0x70d299cc784dd96993419f678e1901910e8a106396ed671dade9de89f2954da2User Burn20068972022-10-17 6:33:06108 days 2 hrs ago0x063b43522defccb3ebea669490262f223f679dccOUT 0xcef19151f44fc3df678554f35c1dd7f29afacde80 CLV0.0018226
0x83bfd34dcbb2d3d3559b2e682ee1ae5ef4094eb0f1f92efcde884ee50b046854Approve20068942022-10-17 6:32:30108 days 2 hrs ago0x063b43522defccb3ebea669490262f223f679dccOUT 0x482e6206aea6b44143e1973e027381d47e029a990 CLV0.00089278
0xc61d601f1a2449847d5ef89db28f1f523b7d6dc227cbe9a4cd6bec6e3030d87eWithdraw14564252022-07-29 3:15:18188 days 5 hrs ago0x063b43522defccb3ebea669490262f223f679dccOUT 0x73c5f0c2465a0ea9eb5d7b2729a30a3c0b0faee40 CLV0.0170355
0x2eae199a581e648402974271db0a615f4d5ad69046d1e2ae5f69acbbc6fbdd87User Burn14116222022-07-22 6:20:24195 days 2 hrs ago0x063b43522defccb3ebea669490262f223f679dccOUT 0xcef19151f44fc3df678554f35c1dd7f29afacde80 CLV0.0132693
0xb91776bf135c2cd906c6ea091ef9d52f793f2b33086b6c80a6a99ab74c49987bWithdraw13868162022-07-18 10:16:54198 days 22 hrs ago0x063b43522defccb3ebea669490262f223f679dccOUT 0xeb84e42f62cb31b26f4c4694bc07da1c8c15a27c0 CLV0.0062819
0x52e0749f1cd469ab29c71c3b76a90e877200638a4816ffefeb7d9e8cedf85a5dApprove13868122022-07-18 10:15:48198 days 22 hrs ago0x063b43522defccb3ebea669490262f223f679dccOUT 0xeb84e42f62cb31b26f4c4694bc07da1c8c15a27c0 CLV0.0044503
0xfd96ebdf3f766bc39cb44a4fb7bd41a5b19d0ecf47c992d674c4e2f28b6bf6fcDeposit13868032022-07-18 10:13:54198 days 22 hrs ago0x063b43522defccb3ebea669490262f223f679dccOUT 0xeb84e42f62cb31b26f4c4694bc07da1c8c15a27c0 CLV0.0096845
0xe0a64d036a06ab5e0696332008a711ae439f309335d17cf4929189f96a3d94a1Transfer13867332022-07-18 9:58:30198 days 22 hrs ago0x063b43522defccb3ebea669490262f223f679dccOUT 0x2d3f63440420ecc3c7223d8818a996d2a6c9a7310 CLV0.0060888
0x35ee9339fe84752c77310a9e411d330f07eccd8902a88d8ae220cf6eacc30956Approve13866992022-07-18 9:50:54198 days 22 hrs ago0x063b43522defccb3ebea669490262f223f679dccOUT 0x2d3f63440420ecc3c7223d8818a996d2a6c9a7310 CLV0.0044525
0xeddea910dc03cc0df1009160173f67239f466f3f3b6dcb497e6b91283d796d3dRemove Liquidity...13866852022-07-18 9:47:18198 days 23 hrs ago0x063b43522defccb3ebea669490262f223f679dccOUT 0x4539516c90004f51459afa79369ec51831d403780 CLV0.0250887
0x333dedc08bd525952efb9a44c7d42e9648453b5ae80da31527dce445eac30155Approve13866812022-07-18 9:46:24198 days 23 hrs ago0x063b43522defccb3ebea669490262f223f679dccOUT0x21064352435bfe77fa8378def3b11bacc730d59b0 CLV0.0066636
0x7da0c9dde8556eaa3d2ed337fa2baa03b61f343d2f97f914e62556e213991f39Swap Exact Token...13601882022-07-14 7:36:20203 days 1 hr ago0x063b43522defccb3ebea669490262f223f679dccOUT 0x4539516c90004f51459afa79369ec51831d403780 CLV0.0135584
0x41137f10b21e033613107642fa498a59332abf770407854df20c743087234581Withdraw13601572022-07-14 7:29:30203 days 1 hr ago0x063b43522defccb3ebea669490262f223f679dccOUT 0x73c5f0c2465a0ea9eb5d7b2729a30a3c0b0faee40 CLV0.0113642
0x428af54a0f561f61f9639cbee815bd85b2fe639ec9a885d5406587614b5d7b89Withdraw13601212022-07-14 7:20:54203 days 1 hr ago0x063b43522defccb3ebea669490262f223f679dccOUT 0x73c5f0c2465a0ea9eb5d7b2729a30a3c0b0faee40 CLV0.011357
0x31099fce3018c55826e10840dc0288ec8f302bbb223a22ee00e358dfd3cc1fe9Deposit13600822022-07-14 7:11:54203 days 1 hr ago0x063b43522defccb3ebea669490262f223f679dccOUT 0x73c5f0c2465a0ea9eb5d7b2729a30a3c0b0faee40 CLV0.0156765
0xe21e35a440b58eea3c4015839f1bd7b1dac7629f97b13b815be142668effa2f6Approve13600752022-07-14 7:10:30203 days 1 hr ago0x063b43522defccb3ebea669490262f223f679dccOUT0xaf75d6e14b3e4f0abb93637af6b646954bc7a4090 CLV0.0044436
0xab13883750c5bb4de560589ca8c3165e2ed4d33ff72d9a5fd6a2297bb6a150b7User Burn13599542022-07-14 6:44:00203 days 2 hrs ago0x063b43522defccb3ebea669490262f223f679dccOUT 0xf7ba155556e2cd4dfe3fe26e506a14d2f4b976130 CLV0.00224445
0xfb4a90def639ccb41e537bcbcc3e5adf09fd689ef1957fac487393724cf04f35Approve13599512022-07-14 6:43:12203 days 2 hrs ago0x063b43522defccb3ebea669490262f223f679dccOUT 0xd557cc89ca98db85ef5ad09afba7c22583fe727e0 CLV0.00223195
0x3daab22bea36a34ea891460418115b39473067abd2fca96fb5537cde61cb7816Add Liquidity ET...13591182022-07-14 3:36:54203 days 5 hrs ago0x063b43522defccb3ebea669490262f223f679dccOUT 0x4539516c90004f51459afa79369ec51831d403780.1 CLV0.018879
0xb0f796b9bdaa6fcd241ad4a73d02ffa51b00d0ccd893893258303b404cc116daAdd Liquidity ET...13590942022-07-14 3:31:30203 days 5 hrs ago0x063b43522defccb3ebea669490262f223f679dccOUT 0x4539516c90004f51459afa79369ec51831d403780.01 CLV0.334052
0xdfb5528fbec5c53d79dad9ded0d6fc502056e758c955edc6cb3e67f66076c093Approve13590842022-07-14 3:28:24203 days 5 hrs ago0x063b43522defccb3ebea669490262f223f679dccOUT 0xc21e5553c8dddf2e4a93e5bedbae436d4291f6030 CLV0.0044491
0x642edcd7f0cfe9124cc91abc39d85f613f961bc4ca9a4631de08d884982fcbcfAdd Liquidity ET...13590582022-07-14 3:22:54203 days 5 hrs ago0x063b43522defccb3ebea669490262f223f679dccOUT 0x4539516c90004f51459afa79369ec51831d403780.1 CLV0.0168676
0x8809946e9e8ddfaa813fd2f41f098c1e8b53f695ac42255010fb59cf9a564255Approve13590532022-07-14 3:21:36203 days 5 hrs ago0x063b43522defccb3ebea669490262f223f679dccOUT 0xc6ae1db6c66d909f7bfeeeb24f9adb8620bf9dbf0 CLV0.0044491
[ Download CSV Export 
Parent Txn Hash Block From To Value
Loading

Contract Name:
0

Compiler Version
0

Optimization Enabled:
0

Other Settings:
-NA-
Block Transaction Gas Used Reward
Age Block Fee Address BC Fee Address Voting Power Jailed Incoming
Block Uncle Number Difficulty Gas Used Reward
Loading
Make sure to use the "Vote Down" button for any spammy posts, and the "Vote Up" for interesting conversations.